createdAt,value
2023-03-13T00:00:24.857Z,75.54
2023-03-13T00:02:51.345Z,75.28
2023-03-13T00:05:17.871Z,75.16
2023-03-13T00:07:44.297Z,75.48
2023-03-13T00:10:10.892Z,75.18
2023-03-13T00:12:37.335Z,75.09
2023-03-13T00:15:03.899Z,75.92
2023-03-13T00:17:30.381Z,75.68
2023-03-13T00:19:56.904Z,75.56
2023-03-13T00:22:23.361Z,75.84
2023-03-13T00:24:49.990Z,75.40
2023-03-13T00:27:16.412Z,75.71
2023-03-13T00:29:42.926Z,75.74
2023-03-13T00:32:09.446Z,75.83
2023-03-13T00:34:35.975Z,75.67
2023-03-13T00:37:02.424Z,75.86
2023-03-13T00:39:28.883Z,76.10
2023-03-13T00:41:55.659Z,76.09
2023-03-13T00:44:22.160Z,75.51
2023-03-13T00:46:48.590Z,75.89
2023-03-13T00:49:15.042Z,75.73
2023-03-13T00:51:41.503Z,75.81
2023-03-13T00:54:07.943Z,76.14
2023-03-13T00:56:34.586Z,75.95
2023-03-13T00:59:01.758Z,76.55
2023-03-13T01:01:29.656Z,76.24
2023-03-13T01:03:57.669Z,76.21
2023-03-13T01:06:25.260Z,76.15
2023-03-13T01:08:52.000Z,75.81
2023-03-13T01:11:20.175Z,75.98
2023-03-13T01:13:47.002Z,75.91
2023-03-13T01:16:14.828Z,76.37
2023-03-13T01:18:43.413Z,76.27
2023-03-13T01:21:09.854Z,76.04
2023-03-13T01:23:36.507Z,76.16
2023-03-13T01:26:04.765Z,75.70
2023-03-13T01:28:31.256Z,75.81
2023-03-13T01:30:57.725Z,75.75
2023-03-13T01:33:24.317Z,75.95
2023-03-13T01:35:50.858Z,76.72
2023-03-13T01:38:17.637Z,76.50
2023-03-13T01:40:45.428Z,76.35
2023-03-13T01:43:29.638Z,76.15
2023-03-13T01:46:04.254Z,76.10
2023-03-13T01:48:33.811Z,76.14
2023-03-13T01:51:01.750Z,75.72
2023-03-13T01:53:29.811Z,76.65
2023-03-13T01:55:57.418Z,76.11
2023-03-13T01:58:23.951Z,76.47
2023-03-13T02:00:50.452Z,76.59
2023-03-13T02:03:19.041Z,76.30
2023-03-13T02:05:46.783Z,76.59
2023-03-13T02:08:25.617Z,76.69
2023-03-13T02:10:58.400Z,76.62
2023-03-13T02:13:25.424Z,76.51
2023-03-13T02:15:52.186Z,76.25
2023-03-13T02:18:18.765Z,75.93
2023-03-13T02:20:45.396Z,75.91
2023-03-13T02:23:11.814Z,75.90
2023-03-13T02:25:45.393Z,75.87
2023-03-13T02:28:20.849Z,75.56
2023-03-13T02:30:48.701Z,75.36
2023-03-13T02:33:16.219Z,75.71
2023-03-13T02:35:44.367Z,76.07
2023-03-13T02:38:13.073Z,75.60
2023-03-13T02:40:41.979Z,75.86
2023-03-13T02:43:14.813Z,75.50
2023-03-13T02:45:41.253Z,75.94
2023-03-13T02:48:07.715Z,75.78
2023-03-13T02:50:36.656Z,75.67
2023-03-13T02:53:05.407Z,75.64
2023-03-13T02:55:34.856Z,76.34
2023-03-13T02:58:01.279Z,75.65
2023-03-13T03:00:27.796Z,76.11
2023-03-13T03:02:54.465Z,75.79
2023-03-13T03:05:22.258Z,75.66
2023-03-13T03:07:52.086Z,76.33
2023-03-13T03:10:18.853Z,76.40
2023-03-13T03:12:45.356Z,76.11
2023-03-13T03:15:11.960Z,74.75
2023-03-13T03:17:39.043Z,75.54
2023-03-13T03:20:11.719Z,75.04
2023-03-13T03:22:40.724Z,74.86
2023-03-13T03:25:08.060Z,75.52
2023-03-13T03:27:34.802Z,75.79
2023-03-13T03:30:01.246Z,75.57
2023-03-13T03:32:27.687Z,75.82
2023-03-13T03:34:54.142Z,75.53
2023-03-13T03:37:20.700Z,75.67
2023-03-13T03:39:47.154Z,75.33
2023-03-13T03:42:13.596Z,74.87
2023-03-13T03:44:40.044Z,75.16
2023-03-13T03:47:06.595Z,75.07
2023-03-13T03:49:33.035Z,74.83
2023-03-13T03:51:59.497Z,74.60
2023-03-13T03:54:26.007Z,75.27
2023-03-13T03:56:52.466Z,74.93
2023-03-13T03:59:18.916Z,75.37
2023-03-13T04:01:45.428Z,75.14
2023-03-13T04:04:12.093Z,75.03
2023-03-13T04:06:38.610Z,75.45
2023-03-13T04:09:05.061Z,75.24
2023-03-13T04:11:31.582Z,75.66
2023-03-13T04:13:58.035Z,75.18
2023-03-13T04:16:24.585Z,75.64
2023-03-13T04:18:51.146Z,75.80
2023-03-13T04:21:17.618Z,75.23
2023-03-13T04:23:44.089Z,75.21
2023-03-13T04:26:10.595Z,75.79
2023-03-13T04:28:37.025Z,75.88
2023-03-13T04:31:03.537Z,76.27
2023-03-13T04:33:30.083Z,76.61
2023-03-13T04:35:56.518Z,76.49
2023-03-13T04:38:23.026Z,75.93
2023-03-13T04:40:49.766Z,76.37
2023-03-13T04:43:16.251Z,76.18
2023-03-13T04:45:42.774Z,76.28
2023-03-13T04:48:09.210Z,76.19
2023-03-13T04:50:35.855Z,76.14
2023-03-13T04:53:02.306Z,75.35
2023-03-13T04:55:28.717Z,76.56
2023-03-13T04:57:55.364Z,75.82
2023-03-13T05:00:22.078Z,76.54
2023-03-13T05:02:48.511Z,76.64
2023-03-13T05:05:15.111Z,76.73
2023-03-13T05:07:41.590Z,77.46
2023-03-13T05:10:08.260Z,76.79
2023-03-13T05:12:34.717Z,76.39
2023-03-13T05:15:01.181Z,76.92
2023-03-13T05:17:27.625Z,76.63
2023-03-13T05:19:54.094Z,76.81
2023-03-13T05:22:20.574Z,76.55
2023-03-13T05:24:47.022Z,77.47
2023-03-13T05:27:13.469Z,77.06
2023-03-13T05:29:39.917Z,77.44
2023-03-13T05:32:06.560Z,77.24
2023-03-13T05:34:32.987Z,77.44
2023-03-13T05:36:59.456Z,77.05
2023-03-13T05:39:25.930Z,77.40
2023-03-13T05:41:52.373Z,77.30
2023-03-13T05:44:18.791Z,78.17
2023-03-13T05:46:45.266Z,77.50
2023-03-13T05:49:11.738Z,77.69
2023-03-13T05:51:38.209Z,77.70
2023-03-13T05:54:04.760Z,77.78
2023-03-13T05:56:31.243Z,77.76
2023-03-13T05:58:57.698Z,77.64
2023-03-13T06:01:24.151Z,76.92
2023-03-13T06:03:50.717Z,77.09
2023-03-13T06:06:17.248Z,76.27
2023-03-13T06:08:43.762Z,76.55
2023-03-13T06:11:10.228Z,76.69
2023-03-13T06:13:36.668Z,76.23
2023-03-13T06:16:03.299Z,76.10
2023-03-13T06:18:29.926Z,76.18
2023-03-13T06:21:00.326Z,76.48
2023-03-13T06:23:27.184Z,76.26
2023-03-13T06:25:53.849Z,75.75
2023-03-13T06:28:20.657Z,76.38
2023-03-13T06:30:47.337Z,75.03
2023-03-13T06:33:13.875Z,74.69
2023-03-13T06:35:55.154Z,74.64
2023-03-13T06:38:23.899Z,73.50
2023-03-13T06:40:50.343Z,72.94
2023-03-13T06:43:16.794Z,72.56
2023-03-13T06:45:43.286Z,73.41
2023-03-13T06:48:09.720Z,73.04
2023-03-13T06:50:39.680Z,72.33
2023-03-13T06:53:06.206Z,71.57
2023-03-13T06:55:32.858Z,71.32
2023-03-13T06:57:59.377Z,71.58
2023-03-13T07:00:25.824Z,71.68
2023-03-13T07:02:52.302Z,70.75
2023-03-13T07:05:18.741Z,70.31
2023-03-13T07:07:45.255Z,70.84
2023-03-13T07:10:11.749Z,70.33
2023-03-13T07:12:38.245Z,71.12
2023-03-13T07:15:05.960Z,70.93
2023-03-13T07:17:32.518Z,69.15
2023-03-13T07:19:59.038Z,69.38
2023-03-13T07:22:25.553Z,69.91
2023-03-13T07:24:52.031Z,69.96
2023-03-13T07:27:21.208Z,69.42
2023-03-13T07:29:47.848Z,69.99
2023-03-13T07:32:14.337Z,70.52
2023-03-13T07:34:40.781Z,70.59
2023-03-13T07:37:07.217Z,70.47
2023-03-13T07:39:33.676Z,68.94
2023-03-13T07:42:00.125Z,69.07
2023-03-13T07:44:26.621Z,68.77
2023-03-13T07:46:53.088Z,67.71
2023-03-13T07:49:19.615Z,67.82
2023-03-13T07:51:48.199Z,68.14
2023-03-13T07:54:14.717Z,67.67
2023-03-13T07:56:41.193Z,69.17
2023-03-13T07:59:07.955Z,68.73
2023-03-13T08:01:34.720Z,68.32
2023-03-13T08:04:01.292Z,68.23
2023-03-13T08:06:30.585Z,68.79
2023-03-13T08:08:58.852Z,68.59
2023-03-13T08:11:26.146Z,68.64
2023-03-13T08:13:54.109Z,69.34
2023-03-13T08:16:21.729Z,69.48
2023-03-13T08:18:51.211Z,69.01
2023-03-13T08:21:19.215Z,69.93
2023-03-13T08:23:45.848Z,70.04
2023-03-13T08:26:14.136Z,70.29
2023-03-13T08:28:41.316Z,70.40
2023-03-13T08:31:09.369Z,70.16
2023-03-13T08:33:36.084Z,70.88
2023-03-13T08:36:10.543Z,70.07
2023-03-13T08:38:37.775Z,69.42
2023-03-13T08:41:04.752Z,70.13
2023-03-13T08:43:31.203Z,70.33
2023-03-13T08:45:57.674Z,70.86
2023-03-13T08:48:24.206Z,71.45
2023-03-13T08:51:00.906Z,71.17
2023-03-13T08:53:27.384Z,71.12
2023-03-13T08:55:54.209Z,70.99
2023-03-13T08:58:20.792Z,70.66
2023-03-13T09:00:47.365Z,71.68
2023-03-13T09:03:13.898Z,71.31
2023-03-13T09:05:54.839Z,71.07
2023-03-13T09:08:22.104Z,68.98
2023-03-13T09:10:48.563Z,70.02
2023-03-13T09:13:15.015Z,69.00
2023-03-13T09:15:41.534Z,69.69
2023-03-13T09:18:08.086Z,69.67
2023-03-13T09:20:34.554Z,69.48
2023-03-13T09:23:01.056Z,67.09
2023-03-13T09:25:27.567Z,68.20
2023-03-13T09:27:54.003Z,68.75
2023-03-13T09:30:20.483Z,67.80
2023-03-13T09:32:47.022Z,67.65
2023-03-13T09:35:13.511Z,68.03
2023-03-13T09:37:39.967Z,68.44
2023-03-13T09:40:08.531Z,67.93
2023-03-13T09:42:45.772Z,68.35
2023-03-13T09:45:15.298Z,68.28
2023-03-13T09:47:54.876Z,69.10
2023-03-13T09:50:25.153Z,68.51
2023-03-13T09:52:56.142Z,67.41
2023-03-13T09:55:48.908Z,67.88
2023-03-13T09:58:24.280Z,69.02
2023-03-13T10:01:16.801Z,66.73
2023-03-13T10:03:47.148Z,67.16
2023-03-13T10:06:20.724Z,67.05
2023-03-13T10:08:47.170Z,67.67
2023-03-13T10:11:28.592Z,67.27
2023-03-13T10:14:07.191Z,67.13
2023-03-13T10:16:38.508Z,67.35
2023-03-13T10:19:15.840Z,66.20
2023-03-13T10:21:43.239Z,66.10
2023-03-13T10:24:12.447Z,66.53
2023-03-13T10:26:38.937Z,65.41
2023-03-13T10:29:25.632Z,65.40
2023-03-13T10:32:02.224Z,65.36
2023-03-13T10:34:48.917Z,65.00
2023-03-13T10:37:16.725Z,65.40
2023-03-13T10:39:43.216Z,65.65
2023-03-13T10:42:11.183Z,64.65
2023-03-13T10:44:37.667Z,65.13
2023-03-13T10:47:04.984Z,65.09
2023-03-13T10:49:32.181Z,63.91
2023-03-13T10:52:03.907Z,65.01
2023-03-13T10:54:37.504Z,64.40
2023-03-13T10:57:29.111Z,63.69
2023-03-13T10:59:55.966Z,62.27
2023-03-13T11:02:28.081Z,64.01
2023-03-13T11:04:55.349Z,63.97
2023-03-13T11:07:36.181Z,62.53
2023-03-13T11:10:20.816Z,62.01
2023-03-13T11:12:49.042Z,62.42
2023-03-13T11:15:17.329Z,62.61
2023-03-13T11:17:47.234Z,62.87
2023-03-13T11:20:19.777Z,62.14
2023-03-13T11:22:55.456Z,61.76
2023-03-13T11:25:25.261Z,62.50
2023-03-13T11:27:51.710Z,62.33
2023-03-13T11:30:33.439Z,62.00
2023-03-13T11:33:05.672Z,61.72
2023-03-13T11:35:35.350Z,60.66
2023-03-13T11:38:07.100Z,61.45
2023-03-13T11:41:00.233Z,61.21
2023-03-13T11:43:31.904Z,61.06
2023-03-13T11:45:58.580Z,59.65
2023-03-13T11:48:30.856Z,59.91
2023-03-13T11:50:57.462Z,58.59
2023-03-13T11:53:24.057Z,58.71
2023-03-13T11:55:57.083Z,57.76
2023-03-13T11:58:32.583Z,58.19
2023-03-13T12:00:59.058Z,58.61
2023-03-13T12:03:36.448Z,58.39
2023-03-13T12:06:05.093Z,58.46
2023-03-13T12:08:48.155Z,57.80
2023-03-13T12:11:28.711Z,57.88
2023-03-13T12:14:01.657Z,57.01
2023-03-13T12:16:44.820Z,56.96
2023-03-13T12:19:12.762Z,56.34
2023-03-13T12:21:59.601Z,56.85
2023-03-13T12:24:28.426Z,56.99
2023-03-13T12:26:58.494Z,54.41
2023-03-13T12:29:27.982Z,54.27
2023-03-13T12:31:59.879Z,54.17
2023-03-13T12:34:30.624Z,54.92
2023-03-13T12:37:02.641Z,54.31
2023-03-13T12:39:36.135Z,54.87
2023-03-13T12:42:07.661Z,54.12
2023-03-13T12:44:34.501Z,53.96
2023-03-13T12:47:16.103Z,54.15
2023-03-13T12:50:01.096Z,54.23
2023-03-13T12:52:33.528Z,55.09
2023-03-13T12:55:19.215Z,54.29
2023-03-13T12:57:51.707Z,54.22
2023-03-13T13:00:22.265Z,54.08
2023-03-13T13:03:01.803Z,53.93
2023-03-13T13:05:28.285Z,54.11
2023-03-13T13:07:55.643Z,54.14
2023-03-13T13:10:25.274Z,54.27
2023-03-13T13:13:10.600Z,53.28
2023-03-13T13:15:38.075Z,53.52
2023-03-13T13:18:16.257Z,53.97
2023-03-13T13:20:45.164Z,54.32
2023-03-13T13:23:20.500Z,53.62
2023-03-13T13:25:47.992Z,52.82
2023-03-13T13:28:14.405Z,53.31
2023-03-13T13:30:40.948Z,53.26
2023-03-13T13:33:16.540Z,53.68
2023-03-13T13:35:43.177Z,53.34
2023-03-13T13:38:19.109Z,52.75
2023-03-13T13:41:03.480Z,53.00
2023-03-13T13:43:31.609Z,53.08
2023-03-13T13:46:07.326Z,53.08
2023-03-13T13:48:36.436Z,53.43
2023-03-13T13:51:09.636Z,53.43
2023-03-13T13:53:42.257Z,53.08
2023-03-13T13:56:27.625Z,52.95
2023-03-13T13:59:03.271Z,53.06
2023-03-13T14:01:30.493Z,52.93
2023-03-13T14:04:11.291Z,53.42
2023-03-13T14:06:39.106Z,53.62
2023-03-13T14:09:36.997Z,53.24
2023-03-13T14:12:23.795Z,53.30
2023-03-13T14:15:05.973Z,52.74
2023-03-13T14:17:37.916Z,53.32
2023-03-13T14:20:06.501Z,53.19
2023-03-13T14:22:45.412Z,53.02
2023-03-13T14:25:12.304Z,52.94
2023-03-13T14:27:42.951Z,53.39
2023-03-13T14:30:10.046Z,53.17
2023-03-13T14:32:37.232Z,53.32
2023-03-13T14:35:06.031Z,53.29
2023-03-13T14:37:43.118Z,53.01
2023-03-13T14:40:18.967Z,53.41
2023-03-13T14:42:49.953Z,53.46
2023-03-13T14:45:21.232Z,53.24
2023-03-13T14:47:47.869Z,53.33
2023-03-13T14:50:15.338Z,53.46
2023-03-13T14:52:46.341Z,53.42
2023-03-13T14:55:26.678Z,53.49
2023-03-13T14:58:05.059Z,53.62
2023-03-13T15:00:42.668Z,53.71
2023-03-13T15:03:29.229Z,53.76
2023-03-13T15:06:01.915Z,53.53
2023-03-13T15:08:28.547Z,53.58
2023-03-13T15:10:55.046Z,53.76
2023-03-13T15:13:33.332Z,53.45
2023-03-13T15:16:00.477Z,53.59
2023-03-13T15:18:28.539Z,53.65
2023-03-13T15:20:56.701Z,53.42
2023-03-13T15:23:23.519Z,54.30
2023-03-13T15:25:50.029Z,53.55
2023-03-13T15:28:25.341Z,53.56
2023-03-13T15:30:52.500Z,53.69
2023-03-13T15:33:22.945Z,53.62
2023-03-13T15:35:50.357Z,53.66
2023-03-13T15:38:18.665Z,53.93
2023-03-13T15:40:45.288Z,54.29
2023-03-13T15:43:12.789Z,54.29
2023-03-13T15:45:40.833Z,54.21
2023-03-13T15:48:31.426Z,54.64
2023-03-13T15:51:02.470Z,54.59
2023-03-13T15:53:30.049Z,55.36
2023-03-13T15:55:57.659Z,54.86
2023-03-13T15:58:24.868Z,55.05
2023-03-13T16:00:51.955Z,55.55
2023-03-13T16:03:20.240Z,56.02
2023-03-13T16:05:47.237Z,56.26
2023-03-13T16:08:20.654Z,56.24
2023-03-13T16:10:59.176Z,56.92
2023-03-13T16:13:25.647Z,57.42
2023-03-13T16:15:52.155Z,56.90
2023-03-13T16:18:21.655Z,57.03
2023-03-13T16:20:48.697Z,57.41
2023-03-13T16:23:15.177Z,57.03
2023-03-13T16:25:41.608Z,56.41
2023-03-13T16:28:12.137Z,56.64
2023-03-13T16:30:41.430Z,56.72
2023-03-13T16:33:08.151Z,57.21
2023-03-13T16:35:34.684Z,56.40
2023-03-13T16:38:01.348Z,56.65
2023-03-13T16:40:30.426Z,56.25
2023-03-13T16:42:56.883Z,56.44
2023-03-13T16:45:23.494Z,56.04
2023-03-13T16:47:50.155Z,55.98
2023-03-13T16:50:19.359Z,56.33
2023-03-13T16:52:45.859Z,56.88
2023-03-13T16:55:12.311Z,56.68
2023-03-13T16:57:38.886Z,57.58
2023-03-13T17:00:16.089Z,57.02
2023-03-13T17:02:42.615Z,58.39
2023-03-13T17:05:09.438Z,58.21
2023-03-13T17:07:35.873Z,58.84
2023-03-13T17:10:02.446Z,58.67
2023-03-13T17:12:28.931Z,60.70
2023-03-13T17:14:55.385Z,59.35
2023-03-13T17:17:22.606Z,59.63
2023-03-13T17:19:49.054Z,60.06
2023-03-13T17:22:17.526Z,61.08
2023-03-13T17:24:44.079Z,60.86
2023-03-13T17:27:12.318Z,60.87
2023-03-13T17:29:38.767Z,61.13
2023-03-13T17:32:06.297Z,61.79
2023-03-13T17:34:32.850Z,62.36
2023-03-13T17:37:04.838Z,62.86
2023-03-13T17:39:31.642Z,63.11
2023-03-13T17:42:00.259Z,63.88
2023-03-13T17:44:26.717Z,65.04
2023-03-13T17:46:53.263Z,64.01
2023-03-13T17:49:20.595Z,63.22
2023-03-13T17:51:49.206Z,64.60
2023-03-13T17:54:16.158Z,65.50
2023-03-13T17:56:43.257Z,65.99
2023-03-13T17:59:13.743Z,65.72
2023-03-13T18:01:40.538Z,66.45
2023-03-13T18:04:07.156Z,66.77
2023-03-13T18:06:39.559Z,67.35
2023-03-13T18:09:08.650Z,68.17
2023-03-13T18:11:38.648Z,68.60
2023-03-13T18:14:05.794Z,68.11
2023-03-13T18:16:40.579Z,67.90
2023-03-13T18:19:08.709Z,68.55
2023-03-13T18:21:35.152Z,69.45
2023-03-13T18:24:01.594Z,70.09
2023-03-13T18:26:36.171Z,70.30
2023-03-13T18:29:04.201Z,69.61
2023-03-13T18:31:31.969Z,69.81
2023-03-13T18:34:00.466Z,69.69
2023-03-13T18:36:27.939Z,70.48
2023-03-13T18:38:54.892Z,70.99
2023-03-13T18:41:21.506Z,70.47
2023-03-13T18:43:48.430Z,70.80
2023-03-13T18:46:22.079Z,70.76
2023-03-13T18:48:48.911Z,70.16
2023-03-13T18:51:19.386Z,70.13
2023-03-13T18:53:46.364Z,69.60
2023-03-13T18:56:20.673Z,69.15
2023-03-13T18:58:50.230Z,68.89
2023-03-13T19:01:18.560Z,68.33
2023-03-13T19:03:45.088Z,66.94
2023-03-13T19:06:22.697Z,67.41
2023-03-13T19:08:50.029Z,67.68
2023-03-13T19:11:17.686Z,66.82
2023-03-13T19:13:44.429Z,65.63
2023-03-13T19:16:29.601Z,64.62
2023-03-13T19:18:56.555Z,64.08
2023-03-13T19:21:27.111Z,63.44
2023-03-13T19:23:53.753Z,64.94
2023-03-13T19:26:20.225Z,64.50
2023-03-13T19:28:46.734Z,63.98
2023-03-13T19:31:13.844Z,64.18
2023-03-13T19:33:40.309Z,62.63
2023-03-13T19:36:13.900Z,63.02
2023-03-13T19:38:40.489Z,62.17
2023-03-13T19:41:07.869Z,63.02
2023-03-13T19:43:34.443Z,63.17
2023-03-13T19:46:01.187Z,62.27
2023-03-13T19:48:27.661Z,62.51
2023-03-13T19:50:54.086Z,62.71
2023-03-13T19:53:20.542Z,62.02
2023-03-13T19:55:47.135Z,61.42
2023-03-13T19:58:13.613Z,61.16
2023-03-13T20:00:40.179Z,61.76
2023-03-13T20:03:06.683Z,62.03
2023-03-13T20:05:33.196Z,60.69
2023-03-13T20:07:59.630Z,61.14
2023-03-13T20:10:26.209Z,61.90
2023-03-13T20:12:53.659Z,62.57
2023-03-13T20:15:20.176Z,62.46
2023-03-13T20:17:46.634Z,62.16
2023-03-13T20:20:13.859Z,62.08
2023-03-13T20:22:40.661Z,62.93
2023-03-13T20:25:07.669Z,62.16
2023-03-13T20:27:34.426Z,61.59
2023-03-13T20:30:00.879Z,61.45
2023-03-13T20:32:27.630Z,62.44
2023-03-13T20:34:54.172Z,62.56
2023-03-13T20:37:20.954Z,61.48
2023-03-13T20:39:47.415Z,61.94
2023-03-13T20:42:14.415Z,61.92
2023-03-13T20:44:41.195Z,61.84
2023-03-13T20:47:07.600Z,61.26
2023-03-13T20:49:34.614Z,61.91
2023-03-13T20:52:01.078Z,61.87
2023-03-13T20:54:27.831Z,62.42
2023-03-13T20:56:54.976Z,63.11
2023-03-13T20:59:21.438Z,62.45
2023-03-13T21:01:48.000Z,62.75
2023-03-13T21:04:14.509Z,63.07
2023-03-13T21:06:41.055Z,63.21
2023-03-13T21:09:07.476Z,63.68
2023-03-13T21:11:33.941Z,63.95
2023-03-13T21:14:00.454Z,64.62
2023-03-13T21:16:27.431Z,64.59
2023-03-13T21:18:53.978Z,64.57
2023-03-13T21:21:22.395Z,64.55
2023-03-13T21:23:52.050Z,63.89
2023-03-13T21:26:19.157Z,64.50
2023-03-13T21:28:45.721Z,64.47
2023-03-13T21:31:16.843Z,64.78
2023-03-13T21:33:44.963Z,64.79
2023-03-13T21:36:12.282Z,64.55
2023-03-13T21:38:39.163Z,65.09
2023-03-13T21:41:09.191Z,65.11
2023-03-13T21:43:35.738Z,65.02
2023-03-13T21:46:03.944Z,65.43
2023-03-13T21:48:30.375Z,64.97
2023-03-13T21:50:56.827Z,65.32
2023-03-13T21:53:23.359Z,64.98
2023-03-13T21:55:50.862Z,65.27
2023-03-13T21:58:17.758Z,65.38
2023-03-13T22:00:44.758Z,64.61
2023-03-13T22:03:11.386Z,65.05
2023-03-13T22:05:41.930Z,65.36
2023-03-13T22:08:08.428Z,64.49
2023-03-13T22:10:35.171Z,64.84
2023-03-13T22:13:01.606Z,65.11
2023-03-13T22:15:28.059Z,65.31
2023-03-13T22:17:54.481Z,65.26
2023-03-13T22:20:20.956Z,64.71
2023-03-13T22:22:47.446Z,64.63
2023-03-13T22:25:13.899Z,64.83
2023-03-13T22:27:40.397Z,64.65
2023-03-13T22:30:07.186Z,65.30
2023-03-13T22:32:33.727Z,64.83
2023-03-13T22:35:00.447Z,65.04
2023-03-13T22:37:27.278Z,65.14
2023-03-13T22:39:54.172Z,65.50
2023-03-13T22:42:21.093Z,65.62
2023-03-13T22:44:47.594Z,66.01
2023-03-13T22:47:14.079Z,66.49
2023-03-13T22:49:40.547Z,66.58
2023-03-13T22:52:07.084Z,66.27
2023-03-13T22:54:33.552Z,66.57
2023-03-13T22:56:59.983Z,67.02
2023-03-13T22:59:26.429Z,66.79
2023-03-13T23:01:52.960Z,67.36
2023-03-13T23:04:19.403Z,67.03
2023-03-13T23:06:45.828Z,67.44
2023-03-13T23:09:12.374Z,66.87
2023-03-13T23:11:38.872Z,66.94
2023-03-13T23:14:05.317Z,67.30
2023-03-13T23:16:31.915Z,66.89
2023-03-13T23:18:58.347Z,67.32
2023-03-13T23:21:24.913Z,66.99
2023-03-13T23:23:53.223Z,66.74
2023-03-13T23:26:19.838Z,67.13
2023-03-13T23:28:46.291Z,66.63
2023-03-13T23:31:22.239Z,66.06
2023-03-13T23:33:49.172Z,67.01
2023-03-13T23:36:17.090Z,66.83
2023-03-13T23:38:43.658Z,67.11
2023-03-13T23:41:11.471Z,66.60
2023-03-13T23:43:38.476Z,66.92
2023-03-13T23:46:05.556Z,67.36
2023-03-13T23:48:32.074Z,67.08
2023-03-13T23:50:58.583Z,67.18
2023-03-13T23:53:25.057Z,67.83
2023-03-13T23:55:58.537Z,67.60
2023-03-13T23:58:25.397Z,67.28
